sensor_id;sensor_type;location;lat;lon;timestamp;pressure;altitude;pressure_sealevel;temperature;humidity
73566;BME280;61846;52.970;-3.168;2023-04-25T00:00:39;100819.14;;;8.21;40.14
73566;BME280;61846;52.970;-3.168;2023-04-25T00:03:04;100821.50;;;8.85;39.22
73566;BME280;61846;52.970;-3.168;2023-04-25T00:05:29;100821.83;;;8.34;39.87
73566;BME280;61846;52.970;-3.168;2023-04-25T00:07:55;100825.57;;;8.19;39.79
73566;BME280;61846;52.970;-3.168;2023-04-25T00:10:20;100826.71;;;8.70;39.10
73566;BME280;61846;52.970;-3.168;2023-04-25T00:12:45;100829.42;;;8.59;38.68
73566;BME280;61846;52.970;-3.168;2023-04-25T00:15:11;100829.07;;;8.34;39.43
73566;BME280;61846;52.970;-3.168;2023-04-25T00:17:36;100826.78;;;8.64;38.92
73566;BME280;61846;52.970;-3.168;2023-04-25T00:20:02;100826.05;;;8.78;39.03
73566;BME280;61846;52.970;-3.168;2023-04-25T00:22:27;100828.62;;;8.49;39.37
73566;BME280;61846;52.970;-3.168;2023-04-25T00:24:53;100820.81;;;8.38;39.17
73566;BME280;61846;52.970;-3.168;2023-04-25T00:27:19;100825.70;;;7.84;40.54
73566;BME280;61846;52.970;-3.168;2023-04-25T00:29:44;100824.99;;;8.14;40.15
73566;BME280;61846;52.970;-3.168;2023-04-25T00:32:09;100827.39;;;7.07;41.54
73566;BME280;61846;52.970;-3.168;2023-04-25T00:34:35;100827.28;;;7.76;40.33
73566;BME280;61846;52.970;-3.168;2023-04-25T00:37:00;100824.79;;;8.47;39.74
73566;BME280;61846;52.970;-3.168;2023-04-25T00:39:26;100821.26;;;6.97;40.97
73566;BME280;61846;52.970;-3.168;2023-04-25T00:41:53;100821.32;;;6.55;42.81
73566;BME280;61846;52.970;-3.168;2023-04-25T00:44:17;100812.14;;;7.12;42.02
73566;BME280;61846;52.970;-3.168;2023-04-25T00:46:43;100809.51;;;6.73;42.40
73566;BME280;61846;52.970;-3.168;2023-04-25T00:49:08;100811.60;;;6.87;42.90
73566;BME280;61846;52.970;-3.168;2023-04-25T00:51:33;100812.44;;;7.13;41.97
73566;BME280;61846;52.970;-3.168;2023-04-25T00:53:58;100815.56;;;6.79;41.80
73566;BME280;61846;52.970;-3.168;2023-04-25T00:56:24;100819.64;;;7.97;40.95
73566;BME280;61846;52.970;-3.168;2023-04-25T00:58:50;100824.93;;;7.18;41.83
73566;BME280;61846;52.970;-3.168;2023-04-25T01:01:14;100834.39;;;6.06;44.26
73566;BME280;61846;52.970;-3.168;2023-04-25T01:03:40;100841.47;;;5.62;44.52
73566;BME280;61846;52.970;-3.168;2023-04-25T01:06:06;100844.78;;;4.84;44.99
73566;BME280;61846;52.970;-3.168;2023-04-25T01:08:31;100849.29;;;5.93;43.97
73566;BME280;61846;52.970;-3.168;2023-04-25T01:10:56;100849.85;;;5.41;44.84
73566;BME280;61846;52.970;-3.168;2023-04-25T01:13:22;100848.66;;;5.10;45.04
73566;BME280;61846;52.970;-3.168;2023-04-25T01:15:48;100848.75;;;4.92;46.34
73566;BME280;61846;52.970;-3.168;2023-04-25T01:18:13;100850.23;;;4.31;47.45
73566;BME280;61846;52.970;-3.168;2023-04-25T01:20:38;100852.60;;;6.60;43.60
73566;BME280;61846;52.970;-3.168;2023-04-25T01:23:04;100846.41;;;7.05;41.75
73566;BME280;61846;52.970;-3.168;2023-04-25T01:25:30;100846.15;;;6.57;42.89
73566;BME280;61846;52.970;-3.168;2023-04-25T01:27:55;100842.43;;;6.98;41.81
73566;BME280;61846;52.970;-3.168;2023-04-25T01:30:20;100843.16;;;6.68;41.41
73566;BME280;61846;52.970;-3.168;2023-04-25T01:32:46;100845.19;;;6.16;42.25
73566;BME280;61846;52.970;-3.168;2023-04-25T01:35:12;100845.61;;;6.55;41.64
73566;BME280;61846;52.970;-3.168;2023-04-25T01:37:36;100848.16;;;6.92;41.44
73566;BME280;61846;52.970;-3.168;2023-04-25T01:40:02;100848.74;;;6.88;40.38
73566;BME280;61846;52.970;-3.168;2023-04-25T01:42:27;100854.82;;;5.30;42.49
73566;BME280;61846;52.970;-3.168;2023-04-25T01:44:53;100852.88;;;7.07;41.51
73566;BME280;61846;52.970;-3.168;2023-04-25T01:47:18;100853.88;;;6.54;41.31
73566;BME280;61846;52.970;-3.168;2023-04-25T01:49:43;100856.76;;;6.66;41.20
73566;BME280;61846;52.970;-3.168;2023-04-25T01:52:08;100856.81;;;5.79;43.56
73566;BME280;61846;52.970;-3.168;2023-04-25T01:54:34;100866.24;;;5.98;42.88
73566;BME280;61846;52.970;-3.168;2023-04-25T01:56:59;100869.75;;;4.56;45.26
73566;BME280;61846;52.970;-3.168;2023-04-25T01:59:25;100864.91;;;6.04;43.58
73566;BME280;61846;52.970;-3.168;2023-04-25T02:01:51;100860.99;;;5.71;43.56
73566;BME280;61846;52.970;-3.168;2023-04-25T02:04:16;100854.92;;;4.55;45.28
73566;BME280;61846;52.970;-3.168;2023-04-25T02:06:41;100852.22;;;6.13;43.08
73566;BME280;61846;52.970;-3.168;2023-04-25T02:09:07;100849.26;;;6.24;41.41
73566;BME280;61846;52.970;-3.168;2023-04-25T02:11:33;100863.15;;;5.38;44.24
73566;BME280;61846;52.970;-3.168;2023-04-25T02:13:59;100871.36;;;5.17;44.38
73566;BME280;61846;52.970;-3.168;2023-04-25T02:16:24;100872.94;;;5.94;43.58
73566;BME280;61846;52.970;-3.168;2023-04-25T02:18:50;100877.48;;;5.38;44.45
73566;BME280;61846;52.970;-3.168;2023-04-25T02:21:15;100877.82;;;4.09;46.28
73566;BME280;61846;52.970;-3.168;2023-04-25T02:23:41;100876.32;;;5.45;43.88
73566;BME280;61846;52.970;-3.168;2023-04-25T02:26:07;100880.07;;;4.48;45.41
73566;BME280;61846;52.970;-3.168;2023-04-25T02:28:32;100879.92;;;5.50;43.43
73566;BME280;61846;52.970;-3.168;2023-04-25T02:30:57;100879.80;;;6.43;41.75
73566;BME280;61846;52.970;-3.168;2023-04-25T02:33:23;100880.42;;;6.61;41.27
73566;BME280;61846;52.970;-3.168;2023-04-25T02:35:48;100876.17;;;6.27;41.31
73566;BME280;61846;52.970;-3.168;2023-04-25T02:38:14;100869.27;;;6.44;40.83
73566;BME280;61846;52.970;-3.168;2023-04-25T02:40:39;100863.64;;;5.78;42.19
73566;BME280;61846;52.970;-3.168;2023-04-25T02:43:05;100866.14;;;5.73;42.22
73566;BME280;61846;52.970;-3.168;2023-04-25T02:45:31;100870.67;;;5.38;43.26
73566;BME280;61846;52.970;-3.168;2023-04-25T02:47:57;100871.85;;;6.29;41.47
73566;BME280;61846;52.970;-3.168;2023-04-25T02:50:23;100873.49;;;6.49;41.42
73566;BME280;61846;52.970;-3.168;2023-04-25T02:52:48;100875.28;;;6.32;42.57
73566;BME280;61846;52.970;-3.168;2023-04-25T02:55:14;100879.76;;;5.76;43.04
73566;BME280;61846;52.970;-3.168;2023-04-25T02:57:39;100881.48;;;5.37;43.34
73566;BME280;61846;52.970;-3.168;2023-04-25T03:00:06;100881.15;;;5.06;43.78
73566;BME280;61846;52.970;-3.168;2023-04-25T03:02:31;100877.60;;;5.73;41.87
73566;BME280;61846;52.970;-3.168;2023-04-25T03:04:56;100881.50;;;5.95;41.52
73566;BME280;61846;52.970;-3.168;2023-04-25T03:07:21;100882.46;;;5.04;43.22
73566;BME280;61846;52.970;-3.168;2023-04-25T03:09:47;100884.80;;;6.01;41.97
73566;BME280;61846;52.970;-3.168;2023-04-25T03:12:12;100887.52;;;6.40;41.50
73566;BME280;61846;52.970;-3.168;2023-04-25T03:14:38;100896.57;;;6.15;41.53
73566;BME280;61846;52.970;-3.168;2023-04-25T03:17:03;100902.04;;;4.96;43.63
73566;BME280;61846;52.970;-3.168;2023-04-25T03:19:28;100903.57;;;4.71;43.98
73566;BME280;61846;52.970;-3.168;2023-04-25T03:21:54;100901.38;;;4.54;44.48
73566;BME280;61846;52.970;-3.168;2023-04-25T03:24:19;100899.73;;;5.16;43.37
73566;BME280;61846;52.970;-3.168;2023-04-25T03:26:45;100900.72;;;5.17;44.13
73566;BME280;61846;52.970;-3.168;2023-04-25T03:29:11;100904.94;;;3.64;45.66
73566;BME280;61846;52.970;-3.168;2023-04-25T03:31:36;100902.95;;;4.04;46.09
73566;BME280;61846;52.970;-3.168;2023-04-25T03:34:02;100899.66;;;4.17;45.00
73566;BME280;61846;52.970;-3.168;2023-04-25T03:36:27;100895.64;;;4.49;45.13
73566;BME280;61846;52.970;-3.168;2023-04-25T03:38:53;100895.92;;;4.63;44.90
73566;BME280;61846;52.970;-3.168;2023-04-25T03:41:18;100894.93;;;4.76;44.10
73566;BME280;61846;52.970;-3.168;2023-04-25T03:43:43;100885.51;;;4.62;44.32
73566;BME280;61846;52.970;-3.168;2023-04-25T03:46:09;100883.64;;;5.30;42.77
73566;BME280;61846;52.970;-3.168;2023-04-25T03:48:35;100886.08;;;5.71;41.92
73566;BME280;61846;52.970;-3.168;2023-04-25T03:51:00;100886.32;;;6.06;41.64
73566;BME280;61846;52.970;-3.168;2023-04-25T03:53:26;100888.75;;;5.88;41.71
73566;BME280;61846;52.970;-3.168;2023-04-25T03:55:51;100890.87;;;5.31;42.86
73566;BME280;61846;52.970;-3.168;2023-04-25T03:58:17;100887.34;;;6.08;41.53
73566;BME280;61846;52.970;-3.168;2023-04-25T04:00:43;100894.50;;;6.11;41.23
73566;BME280;61846;52.970;-3.168;2023-04-25T04:03:09;100900.92;;;5.14;43.07
73566;BME280;61846;52.970;-3.168;2023-04-25T04:05:34;100901.24;;;4.54;44.05
73566;BME280;61846;52.970;-3.168;2023-04-25T04:08:00;100898.87;;;4.25;44.27
73566;BME280;61846;52.970;-3.168;2023-04-25T04:10:25;100899.46;;;5.41;42.65
73566;BME280;61846;52.970;-3.168;2023-04-25T04:12:51;100897.88;;;5.09;42.87
73566;BME280;61846;52.970;-3.168;2023-04-25T04:15:16;100896.15;;;5.66;41.99
73566;BME280;61846;52.970;-3.168;2023-04-25T04:17:42;100899.59;;;5.67;41.66
73566;BME280;61846;52.970;-3.168;2023-04-25T04:20:08;100904.05;;;4.14;44.34
73566;BME280;61846;52.970;-3.168;2023-04-25T04:22:33;100906.16;;;3.68;45.31
73566;BME280;61846;52.970;-3.168;2023-04-25T04:24:59;100907.37;;;4.10;44.98
73566;BME280;61846;52.970;-3.168;2023-04-25T04:27:24;100907.71;;;2.73;46.91
73566;BME280;61846;52.970;-3.168;2023-04-25T04:29:49;100906.83;;;3.62;46.70
73566;BME280;61846;52.970;-3.168;2023-04-25T04:32:15;100909.60;;;3.59;46.66
73566;BME280;61846;52.970;-3.168;2023-04-25T04:34:41;100916.39;;;2.86;47.39
73566;BME280;61846;52.970;-3.168;2023-04-25T04:37:06;100914.46;;;4.40;45.53
73566;BME280;61846;52.970;-3.168;2023-04-25T04:39:31;100916.82;;;4.13;45.90
73566;BME280;61846;52.970;-3.168;2023-04-25T04:41:57;100916.42;;;4.58;44.00
73566;BME280;61846;52.970;-3.168;2023-04-25T04:44:23;100919.69;;;4.59;43.85
73566;BME280;61846;52.970;-3.168;2023-04-25T04:46:49;100918.95;;;4.83;43.01
73566;BME280;61846;52.970;-3.168;2023-04-25T04:49:14;100927.95;;;2.95;46.60
73566;BME280;61846;52.970;-3.168;2023-04-25T04:51:40;100928.29;;;3.60;45.50
73566;BME280;61846;52.970;-3.168;2023-04-25T04:54:06;100928.04;;;3.43;46.43
73566;BME280;61846;52.970;-3.168;2023-04-25T04:56:32;100923.60;;;3.48;45.87
73566;BME280;61846;52.970;-3.168;2023-04-25T04:58:57;100922.54;;;4.42;44.29
73566;BME280;61846;52.970;-3.168;2023-04-25T05:01:23;100926.17;;;4.11;44.55
73566;BME280;61846;52.970;-3.168;2023-04-25T05:03:48;100930.37;;;2.54;48.02
73566;BME280;61846;52.970;-3.168;2023-04-25T05:06:13;100926.64;;;4.00;44.94
73566;BME280;61846;52.970;-3.168;2023-04-25T05:08:39;100927.55;;;3.53;45.67
73566;BME280;61846;52.970;-3.168;2023-04-25T05:11:05;100932.50;;;2.24;47.95
73566;BME280;61846;52.970;-3.168;2023-04-25T05:13:30;100928.95;;;3.29;46.76
73566;BME280;61846;52.970;-3.168;2023-04-25T05:15:55;100932.74;;;3.62;46.04
73566;BME280;61846;52.970;-3.168;2023-04-25T05:18:21;100931.70;;;3.44;45.99
73566;BME280;61846;52.970;-3.168;2023-04-25T05:20:47;100932.30;;;3.21;46.52
73566;BME280;61846;52.970;-3.168;2023-04-25T05:23:12;100936.49;;;2.62;47.63
73566;BME280;61846;52.970;-3.168;2023-04-25T05:25:38;100934.44;;;3.97;45.29
73566;BME280;61846;52.970;-3.168;2023-04-25T05:28:03;100936.85;;;4.72;43.82
73566;BME280;61846;52.970;-3.168;2023-04-25T05:30:29;100939.06;;;4.91;42.84
73566;BME280;61846;52.970;-3.168;2023-04-25T05:32:54;100942.85;;;4.96;42.71
73566;BME280;61846;52.970;-3.168;2023-04-25T05:35:19;100948.72;;;4.66;43.81
73566;BME280;61846;52.970;-3.168;2023-04-25T05:37:45;100950.10;;;4.98;42.93
73566;BME280;61846;52.970;-3.168;2023-04-25T05:40:11;100948.36;;;5.04;42.94
73566;BME280;61846;52.970;-3.168;2023-04-25T05:42:37;100949.72;;;4.92;43.36
73566;BME280;61846;52.970;-3.168;2023-04-25T05:45:03;100952.26;;;4.71;43.59
73566;BME280;61846;52.970;-3.168;2023-04-25T05:47:28;100956.56;;;5.01;43.13
73566;BME280;61846;52.970;-3.168;2023-04-25T05:49:53;100962.85;;;3.72;45.07
73566;BME280;61846;52.970;-3.168;2023-04-25T05:52:19;100964.35;;;4.10;44.49
73566;BME280;61846;52.970;-3.168;2023-04-25T05:54:44;100964.67;;;4.13;44.24
73566;BME280;61846;52.970;-3.168;2023-04-25T05:57:20;100963.45;;;3.74;45.65
73566;BME280;61846;52.970;-3.168;2023-04-25T05:59:35;100955.10;;;4.23;44.77
73566;BME280;61846;52.970;-3.168;2023-04-25T06:02:00;100960.27;;;4.42;44.23
73566;BME280;61846;52.970;-3.168;2023-04-25T06:04:26;100965.40;;;4.70;43.48
73566;BME280;61846;52.970;-3.168;2023-04-25T06:06:51;100972.40;;;4.45;43.59
73566;BME280;61846;52.970;-3.168;2023-04-25T06:09:17;100974.01;;;4.67;43.26
73566;BME280;61846;52.970;-3.168;2023-04-25T06:11:43;100976.41;;;4.61;43.65
73566;BME280;61846;52.970;-3.168;2023-04-25T06:14:08;100981.58;;;4.19;43.87
73566;BME280;61846;52.970;-3.168;2023-04-25T06:16:34;100979.36;;;4.53;42.55
73566;BME280;61846;52.970;-3.168;2023-04-25T06:18:59;100981.31;;;4.49;42.41
73566;BME280;61846;52.970;-3.168;2023-04-25T06:21:25;100986.58;;;4.39;42.76
73566;BME280;61846;52.970;-3.168;2023-04-25T06:23:50;100991.50;;;4.25;44.06
73566;BME280;61846;52.970;-3.168;2023-04-25T06:26:16;100996.80;;;4.12;43.85
73566;BME280;61846;52.970;-3.168;2023-04-25T06:28:41;100998.04;;;4.80;43.43
73566;BME280;61846;52.970;-3.168;2023-04-25T06:31:07;101000.26;;;4.90;43.14
73566;BME280;61846;52.970;-3.168;2023-04-25T06:33:32;100999.89;;;5.33;42.71
73566;BME280;61846;52.970;-3.168;2023-04-25T06:35:58;100997.71;;;4.95;42.87
73566;BME280;61846;52.970;-3.168;2023-04-25T06:38:24;100999.79;;;4.84;43.63
73566;BME280;61846;52.970;-3.168;2023-04-25T06:40:49;101003.57;;;4.53;43.73
73566;BME280;61846;52.970;-3.168;2023-04-25T06:43:15;100999.51;;;5.16;42.47
73566;BME280;61846;52.970;-3.168;2023-04-25T06:45:41;101000.59;;;4.69;44.01
73566;BME280;61846;52.970;-3.168;2023-04-25T06:48:06;101005.17;;;4.65;44.43
73566;BME280;61846;52.970;-3.168;2023-04-25T06:50:33;101003.55;;;5.21;43.43
73566;BME280;61846;52.970;-3.168;2023-04-25T06:52:58;101000.48;;;5.66;42.29
73566;BME280;61846;52.970;-3.168;2023-04-25T06:55:23;100998.39;;;5.76;41.42
73566;BME280;61846;52.970;-3.168;2023-04-25T06:57:49;100998.59;;;5.51;42.25
73566;BME280;61846;52.970;-3.168;2023-04-25T07:00:15;100997.18;;;5.58;41.93
73566;BME280;61846;52.970;-3.168;2023-04-25T07:02:40;100998.94;;;5.93;41.48
73566;BME280;61846;52.970;-3.168;2023-04-25T07:05:06;101002.16;;;6.44;40.82
73566;BME280;61846;52.970;-3.168;2023-04-25T07:07:31;100999.78;;;5.73;41.15
73566;BME280;61846;52.970;-3.168;2023-04-25T07:09:57;100999.91;;;5.65;42.73
73566;BME280;61846;52.970;-3.168;2023-04-25T07:12:23;100999.88;;;6.30;41.11
73566;BME280;61846;52.970;-3.168;2023-04-25T07:14:49;100997.79;;;6.58;40.86
73566;BME280;61846;52.970;-3.168;2023-04-25T07:17:14;100995.98;;;5.52;43.35
73566;BME280;61846;52.970;-3.168;2023-04-25T07:19:40;100995.64;;;6.34;41.36
73566;BME280;61846;52.970;-3.168;2023-04-25T07:22:05;100995.85;;;6.07;42.77
73566;BME280;61846;52.970;-3.168;2023-04-25T07:24:31;100998.42;;;6.61;40.77
73566;BME280;61846;52.970;-3.168;2023-04-25T07:26:56;101003.46;;;5.89;42.66
73566;BME280;61846;52.970;-3.168;2023-04-25T07:29:22;101004.14;;;6.63;55.60
73566;BME280;61846;52.970;-3.168;2023-04-25T07:31:47;101000.46;;;6.98;40.92
73566;BME280;61846;52.970;-3.168;2023-04-25T07:34:13;101000.43;;;7.02;40.59
73566;BME280;61846;52.970;-3.168;2023-04-25T07:36:38;101001.28;;;7.11;39.66
73566;BME280;61846;52.970;-3.168;2023-04-25T07:39:04;100998.56;;;7.47;40.11
73566;BME280;61846;52.970;-3.168;2023-04-25T07:41:30;100994.29;;;7.74;38.13
73566;BME280;61846;52.970;-3.168;2023-04-25T07:43:55;100990.76;;;8.23;38.23
73566;BME280;61846;52.970;-3.168;2023-04-25T07:46:20;100994.39;;;7.87;38.09
73566;BME280;61846;52.970;-3.168;2023-04-25T07:48:46;100992.89;;;8.23;37.28
73566;BME280;61846;52.970;-3.168;2023-04-25T07:51:11;100993.95;;;8.12;37.54
73566;BME280;61846;52.970;-3.168;2023-04-25T07:53:37;100994.71;;;8.40;37.91
73566;BME280;61846;52.970;-3.168;2023-04-25T07:56:03;100992.71;;;8.78;36.63
73566;BME280;61846;52.970;-3.168;2023-04-25T07:58:28;100992.00;;;9.12;35.81
73566;BME280;61846;52.970;-3.168;2023-04-25T08:00:54;100997.56;;;8.82;36.41
73566;BME280;61846;52.970;-3.168;2023-04-25T08:03:20;100996.54;;;8.92;35.38
73566;BME280;61846;52.970;-3.168;2023-04-25T08:05:46;100997.26;;;9.52;34.92
73566;BME280;61846;52.970;-3.168;2023-04-25T08:08:11;100994.62;;;10.22;33.61
73566;BME280;61846;52.970;-3.168;2023-04-25T08:10:36;100993.30;;;10.10;32.61
73566;BME280;61846;52.970;-3.168;2023-04-25T08:13:02;100991.25;;;10.07;32.09
73566;BME280;61846;52.970;-3.168;2023-04-25T08:15:28;100989.55;;;10.50;32.45
73566;BME280;61846;52.970;-3.168;2023-04-25T08:36:04;101000.87;;;7.36;38.12
73566;BME280;61846;52.970;-3.168;2023-04-25T08:38:29;100992.32;;;9.80;34.17
73566;BME280;61846;52.970;-3.168;2023-04-25T08:40:54;100991.31;;;10.77;31.29
73566;BME280;61846;52.970;-3.168;2023-04-25T08:43:20;100988.87;;;11.03;31.30
73566;BME280;61846;52.970;-3.168;2023-04-25T08:45:46;100988.70;;;10.78;30.22
73566;BME280;61846;52.970;-3.168;2023-04-25T08:48:12;100991.90;;;10.69;30.28
73566;BME280;61846;52.970;-3.168;2023-04-25T08:50:37;100992.45;;;12.20;28.19
73566;BME280;61846;52.970;-3.168;2023-04-25T08:53:04;100993.56;;;11.00;29.34
73566;BME280;61846;52.970;-3.168;2023-04-25T08:55:27;100993.60;;;11.94;28.90
73566;BME280;61846;52.970;-3.168;2023-04-25T08:57:55;100992.73;;;12.39;27.27
73566;BME280;61846;52.970;-3.168;2023-04-25T09:00:18;100998.09;;;10.98;29.36
73566;BME280;61846;52.970;-3.168;2023-04-25T09:02:44;100997.18;;;12.01;28.18
73566;BME280;61846;52.970;-3.168;2023-04-25T09:05:12;100996.21;;;11.78;29.25
73566;BME280;61846;52.970;-3.168;2023-04-25T09:07:34;100989.25;;;12.53;28.27
73566;BME280;61846;52.970;-3.168;2023-04-25T09:10:00;100992.79;;;12.35;28.15
73566;BME280;61846;52.970;-3.168;2023-04-25T09:12:26;100994.90;;;11.73;28.91
73566;BME280;61846;52.970;-3.168;2023-04-25T09:15:01;100989.93;;;12.51;27.72
73566;BME280;61846;52.970;-3.168;2023-04-25T09:17:18;100992.22;;;12.90;26.19
73566;BME280;61846;52.970;-3.168;2023-04-25T09:19:42;100991.91;;;12.73;27.15
73566;BME280;61846;52.970;-3.168;2023-04-25T09:22:07;100987.56;;;12.73;26.33
73566;BME280;61846;52.970;-3.168;2023-04-25T09:24:35;100989.91;;;11.20;28.12
73566;BME280;61846;52.970;-3.168;2023-04-25T09:26:58;100983.28;;;12.72;26.00
73566;BME280;61846;52.970;-3.168;2023-04-25T09:29:29;100983.38;;;13.12;26.18
73566;BME280;61846;52.970;-3.168;2023-04-25T09:31:49;100984.66;;;13.24;26.57
73566;BME280;61846;52.970;-3.168;2023-04-25T09:34:15;100987.12;;;13.13;27.34
73566;BME280;61846;52.970;-3.168;2023-04-25T09:36:40;100989.17;;;13.10;26.22
73566;BME280;61846;52.970;-3.168;2023-04-25T09:39:12;100986.90;;;13.56;25.00
73566;BME280;61846;52.970;-3.168;2023-04-25T09:41:31;100990.72;;;14.19;25.53
73566;BME280;61846;52.970;-3.168;2023-04-25T09:43:57;100990.33;;;13.33;26.35
73566;BME280;61846;52.970;-3.168;2023-04-25T09:46:23;100992.46;;;14.34;24.38
73566;BME280;61846;52.970;-3.168;2023-04-25T09:48:49;100989.95;;;15.33;24.75
73566;BME280;61846;52.970;-3.168;2023-04-25T09:51:13;100988.36;;;15.43;23.67
73566;BME280;61846;52.970;-3.168;2023-04-25T09:53:40;100986.60;;;13.91;25.06
73566;BME280;61846;52.970;-3.168;2023-04-25T09:56:06;100990.44;;;15.54;24.32
73566;BME280;61846;52.970;-3.168;2023-04-25T09:58:30;100990.46;;;14.31;23.48
73566;BME280;61846;52.970;-3.168;2023-04-25T10:00:55;100989.02;;;15.76;22.94
73566;BME280;61846;52.970;-3.168;2023-04-25T10:03:20;100992.67;;;14.00;24.74
73566;BME280;61846;52.970;-3.168;2023-04-25T10:05:47;100992.33;;;13.91;23.66
73566;BME280;61846;52.970;-3.168;2023-04-25T10:08:12;100989.95;;;13.42;26.10
73566;BME280;61846;52.970;-3.168;2023-04-25T10:10:37;100983.79;;;14.30;25.89
73566;BME280;61846;52.970;-3.168;2023-04-25T10:13:04;100984.74;;;15.53;23.43
73566;BME280;61846;52.970;-3.168;2023-04-25T10:15:27;100983.96;;;15.32;23.43
73566;BME280;61846;52.970;-3.168;2023-04-25T10:17:53;100986.08;;;15.77;23.02
73566;BME280;61846;52.970;-3.168;2023-04-25T10:20:18;100983.96;;;14.69;23.25
73566;BME280;61846;52.970;-3.168;2023-04-25T10:22:45;100985.61;;;14.53;23.65
73566;BME280;61846;52.970;-3.168;2023-04-25T10:25:09;100989.52;;;14.97;23.55
73566;BME280;61846;52.970;-3.168;2023-04-25T10:27:34;100996.03;;;15.56;25.12
73566;BME280;61846;52.970;-3.168;2023-04-25T10:30:00;100990.69;;;16.36;23.29
73566;BME280;61846;52.970;-3.168;2023-04-25T10:32:25;100988.29;;;15.61;23.18
73566;BME280;61846;52.970;-3.168;2023-04-25T10:34:50;100986.91;;;15.72;22.55
73566;BME280;61846;52.970;-3.168;2023-04-25T10:37:15;100985.31;;;16.13;21.90
73566;BME280;61846;52.970;-3.168;2023-04-25T10:39:42;100989.80;;;15.96;22.36
73566;BME280;61846;52.970;-3.168;2023-04-25T10:42:07;100988.54;;;15.76;21.73
73566;BME280;61846;52.970;-3.168;2023-04-25T10:44:32;100988.50;;;15.68;22.66
73566;BME280;61846;52.970;-3.168;2023-04-25T10:46:58;100984.21;;;15.58;22.27
73566;BME280;61846;52.970;-3.168;2023-04-25T10:49:28;100986.27;;;16.06;22.97
73566;BME280;61846;52.970;-3.168;2023-04-25T10:51:48;100981.72;;;15.67;24.02
73566;BME280;61846;52.970;-3.168;2023-04-25T10:54:18;100982.14;;;14.40;24.16
73566;BME280;61846;52.970;-3.168;2023-04-25T10:56:41;100985.14;;;14.51;24.98
73566;BME280;61846;52.970;-3.168;2023-04-25T10:59:06;100976.94;;;15.49;22.39
73566;BME280;61846;52.970;-3.168;2023-04-25T11:01:36;100977.58;;;15.88;23.16
73566;BME280;61846;52.970;-3.168;2023-04-25T11:03:58;100977.45;;;16.47;22.95
73566;BME280;61846;52.970;-3.168;2023-04-25T11:06:25;100981.27;;;15.82;23.78
73566;BME280;61846;52.970;-3.168;2023-04-25T11:08:49;100984.87;;;14.93;24.54
73566;BME280;61846;52.970;-3.168;2023-04-25T11:11:11;100983.06;;;15.40;23.54
73566;BME280;61846;52.970;-3.168;2023-04-25T11:13:37;100983.05;;;16.23;22.90
73566;BME280;61846;52.970;-3.168;2023-04-25T11:16:03;100985.22;;;16.05;21.97
73566;BME280;61846;52.970;-3.168;2023-04-25T11:18:28;100985.26;;;15.56;22.90
73566;BME280;61846;52.970;-3.168;2023-04-25T11:20:53;100984.11;;;14.88;23.26
73566;BME280;61846;52.970;-3.168;2023-04-25T11:23:18;100985.46;;;13.20;24.60
73566;BME280;61846;52.970;-3.168;2023-04-25T11:25:44;100985.32;;;14.16;23.66
73566;BME280;61846;52.970;-3.168;2023-04-25T11:28:09;100986.73;;;12.47;25.63
73566;BME280;61846;52.970;-3.168;2023-04-25T11:30:35;100986.83;;;13.52;25.16
73566;BME280;61846;52.970;-3.168;2023-04-25T11:33:00;100983.91;;;14.04;24.50
73566;BME280;61846;52.970;-3.168;2023-04-25T11:35:25;100983.15;;;14.61;24.10
73566;BME280;61846;52.970;-3.168;2023-04-25T11:37:51;100984.49;;;14.61;24.24
73566;BME280;61846;52.970;-3.168;2023-04-25T11:40:16;100982.13;;;14.57;23.85
73566;BME280;61846;52.970;-3.168;2023-04-25T11:42:44;100981.76;;;13.50;24.25
73566;BME280;61846;52.970;-3.168;2023-04-25T11:45:08;100982.59;;;14.64;24.25
73566;BME280;61846;52.970;-3.168;2023-04-25T11:47:33;100979.87;;;14.76;23.25
73566;BME280;61846;52.970;-3.168;2023-04-25T11:49:59;100979.16;;;14.92;24.25
73566;BME280;61846;52.970;-3.168;2023-04-25T11:52:24;100980.39;;;13.55;24.93
73566;BME280;61846;52.970;-3.168;2023-04-25T11:54:49;100980.41;;;13.54;25.47
73566;BME280;61846;52.970;-3.168;2023-04-25T11:57:14;100984.44;;;13.02;24.85
73566;BME280;61846;52.970;-3.168;2023-04-25T11:59:40;100979.26;;;14.80;23.33
73566;BME280;61846;52.970;-3.168;2023-04-25T12:02:05;100981.36;;;13.93;23.85
73566;BME280;61846;52.970;-3.168;2023-04-25T12:04:31;100984.09;;;12.70;25.34
73566;BME280;61846;52.970;-3.168;2023-04-25T12:06:56;100979.78;;;13.08;25.62
73566;BME280;61846;52.970;-3.168;2023-04-25T12:09:28;100978.44;;;13.90;24.23
73566;BME280;61846;52.970;-3.168;2023-04-25T12:11:48;100978.68;;;13.64;24.25
73566;BME280;61846;52.970;-3.168;2023-04-25T12:14:21;100978.39;;;13.24;24.70
73566;BME280;61846;52.970;-3.168;2023-04-25T12:16:42;100981.21;;;13.73;23.60
73566;BME280;61846;52.970;-3.168;2023-04-25T12:19:04;100987.57;;;13.19;23.72
73566;BME280;61846;52.970;-3.168;2023-04-25T12:21:29;100989.91;;;11.90;25.21
73566;BME280;61846;52.970;-3.168;2023-04-25T12:23:54;100986.63;;;11.56;26.22
73566;BME280;61846;52.970;-3.168;2023-04-25T12:26:20;100990.60;;;11.26;26.76
73566;BME280;61846;52.970;-3.168;2023-04-25T12:28:45;100985.48;;;12.02;25.83
73566;BME280;61846;52.970;-3.168;2023-04-25T12:31:11;100985.16;;;13.49;25.24
73566;BME280;61846;52.970;-3.168;2023-04-25T12:33:37;100987.82;;;12.21;25.17
73566;BME280;61846;52.970;-3.168;2023-04-25T12:36:03;100988.63;;;13.21;24.66
73566;BME280;61846;52.970;-3.168;2023-04-25T12:38:28;100987.48;;;13.71;23.90
73566;BME280;61846;52.970;-3.168;2023-04-25T12:40:53;100994.44;;;14.37;23.97
73566;BME280;61846;52.970;-3.168;2023-04-25T12:43:18;100992.20;;;13.93;23.72
73566;BME280;61846;52.970;-3.168;2023-04-25T12:45:44;100994.24;;;12.73;25.50
73566;BME280;61846;52.970;-3.168;2023-04-25T12:48:09;100993.81;;;13.26;24.85
73566;BME280;61846;52.970;-3.168;2023-04-25T12:50:34;100988.91;;;14.03;24.09
73566;BME280;61846;52.970;-3.168;2023-04-25T12:53:00;100988.14;;;14.35;22.79